createdAt,value
2023-04-03T00:01:22.465Z,1.20
2023-04-03T00:03:49.739Z,0.90
2023-04-03T00:06:17.388Z,1.13
2023-04-03T00:08:47.074Z,1.63
2023-04-03T00:11:15.335Z,1.40
2023-04-03T00:13:43.413Z,1.52
2023-04-03T00:16:11.741Z,1.42
2023-04-03T00:18:40.010Z,1.45
2023-04-03T00:21:08.517Z,1.40
2023-04-03T00:23:36.050Z,1.48
2023-04-03T00:26:03.588Z,1.38
2023-04-03T00:28:31.307Z,1.45
2023-04-03T00:30:58.660Z,1.40
2023-04-03T00:33:26.088Z,1.40
2023-04-03T00:35:54.915Z,1.80
2023-04-03T00:38:22.218Z,1.65
2023-04-03T00:40:51.059Z,1.20
2023-04-03T00:43:41.510Z,1.40
2023-04-03T00:46:09.712Z,1.52
2023-04-03T00:48:46.632Z,1.30
2023-04-03T00:51:17.458Z,1.50
2023-04-03T00:53:50.376Z,1.50
2023-04-03T00:56:20.804Z,1.42
2023-04-03T00:58:54.833Z,1.55
2023-04-03T01:01:25.878Z,1.20
2023-04-03T01:03:53.895Z,1.70
2023-04-03T01:06:27.323Z,1.67
2023-04-03T01:08:56.473Z,1.83
2023-04-03T01:11:23.790Z,1.67
2023-04-03T01:13:51.562Z,1.75
2023-04-03T01:16:20.813Z,2.00
2023-04-03T01:18:48.340Z,1.77
2023-04-03T01:21:38.182Z,1.80
2023-04-03T01:24:24.262Z,1.57
2023-04-03T01:26:51.658Z,1.50
2023-04-03T01:29:19.067Z,1.80
2023-04-03T01:31:58.686Z,2.30
2023-04-03T01:34:27.841Z,1.90
2023-04-03T01:36:56.372Z,2.00
2023-04-03T01:39:23.888Z,1.75
2023-04-03T01:41:52.046Z,1.90
2023-04-03T01:46:59.632Z,1.65
2023-04-03T01:49:29.043Z,2.15
2023-04-03T01:51:56.958Z,1.58
2023-04-03T01:54:24.219Z,1.73
2023-04-03T01:56:51.971Z,1.90
2023-04-03T01:59:22.039Z,1.97
2023-04-03T02:01:49.297Z,1.60
2023-04-03T02:04:17.616Z,1.95
2023-04-03T02:06:45.130Z,2.05
2023-04-03T02:09:12.721Z,2.25
2023-04-03T02:11:39.999Z,1.92
2023-04-03T02:14:07.688Z,2.00
2023-04-03T02:16:35.323Z,2.10
2023-04-03T02:19:02.778Z,2.53
2023-04-03T02:21:31.239Z,2.05
2023-04-03T02:23:58.779Z,1.80
2023-04-03T02:26:26.913Z,2.08
2023-04-03T02:28:54.224Z,1.77
2023-04-03T02:31:22.141Z,2.50
2023-04-03T02:33:49.538Z,1.92
2023-04-03T02:36:17.830Z,2.05
2023-04-03T02:38:51.159Z,1.95
2023-04-03T02:41:18.948Z,2.00
2023-04-03T02:43:48.980Z,2.20
2023-04-03T02:46:19.448Z,2.35
2023-04-03T02:48:46.694Z,2.50
2023-04-03T02:51:14.333Z,2.35
2023-04-03T02:53:41.743Z,2.60
2023-04-03T02:56:14.568Z,2.28
2023-04-03T02:58:41.905Z,2.30
2023-04-03T03:01:10.518Z,2.33
2023-04-03T03:03:37.962Z,2.60
2023-04-03T03:06:08.041Z,2.25
2023-04-03T03:08:35.945Z,2.70
2023-04-03T03:11:04.066Z,3.85
2023-04-03T03:13:32.159Z,2.20
2023-04-03T03:15:59.459Z,2.10
2023-04-03T03:18:27.299Z,2.25
2023-04-03T03:20:56.725Z,2.20
2023-04-03T03:23:26.226Z,2.05
2023-04-03T03:26:03.155Z,2.03
2023-04-03T03:28:30.680Z,1.92
2023-04-03T03:31:01.575Z,2.58
2023-04-03T03:33:30.039Z,2.15
2023-04-03T03:35:57.349Z,2.55
2023-04-03T03:38:25.285Z,2.00
2023-04-03T03:40:53.727Z,1.98
2023-04-03T03:43:22.501Z,2.42
2023-04-03T03:45:53.420Z,2.20
2023-04-03T03:48:22.008Z,2.85
2023-04-03T03:50:50.767Z,2.28
2023-04-03T03:53:20.351Z,2.17
2023-04-03T03:55:49.043Z,2.30
2023-04-03T03:58:17.501Z,2.28
2023-04-03T04:00:44.783Z,2.28
2023-04-03T04:03:12.310Z,2.35
2023-04-03T04:05:40.507Z,2.20
2023-04-03T04:08:08.254Z,2.28
2023-04-03T04:10:38.501Z,2.30
2023-04-03T04:13:06.897Z,2.55
2023-04-03T04:15:35.607Z,2.60
2023-04-03T04:18:03.818Z,2.22
2023-04-03T04:20:32.956Z,2.95
2023-04-03T04:23:00.510Z,2.30
2023-04-03T04:25:28.579Z,1.92
2023-04-03T04:27:55.985Z,2.50
2023-04-03T04:30:23.314Z,2.60
2023-04-03T04:32:51.774Z,3.55
2023-04-03T04:35:19.440Z,2.72
2023-04-03T04:37:49.674Z,2.55
2023-04-03T04:40:17.734Z,2.25
2023-04-03T04:42:45.664Z,2.58
2023-04-03T04:45:13.581Z,2.33
2023-04-03T04:50:12.600Z,2.47
2023-04-03T04:52:40.624Z,3.28
2023-04-03T04:55:09.473Z,2.30
2023-04-03T04:57:38.077Z,2.83
2023-04-03T05:00:07.945Z,2.60
2023-04-03T05:02:36.019Z,2.42
2023-04-03T05:05:05.748Z,2.42
2023-04-03T05:07:36.733Z,2.38
2023-04-03T05:10:05.046Z,2.83
2023-04-03T05:12:33.658Z,1.95
2023-04-03T05:15:04.247Z,3.08
2023-04-03T05:17:33.016Z,4.60
2023-04-03T05:20:01.265Z,2.30
2023-04-03T05:22:29.631Z,2.20
2023-04-03T05:25:03.598Z,2.33
2023-04-03T05:27:31.031Z,2.63
2023-04-03T05:30:00.390Z,2.40
2023-04-03T05:32:28.888Z,3.25
2023-04-03T05:35:23.629Z,2.15
2023-04-03T05:37:54.497Z,2.70
2023-04-03T05:40:22.676Z,2.35
2023-04-03T05:42:54.518Z,2.50
2023-04-03T05:45:25.375Z,2.30
2023-04-03T05:47:55.876Z,2.60
2023-04-03T05:50:24.552Z,2.63
2023-04-03T05:52:57.653Z,2.67
2023-04-03T05:55:26.796Z,2.30
2023-04-03T05:57:54.986Z,2.88
2023-04-03T06:00:23.630Z,2.33
2023-04-03T06:03:00.630Z,2.50
2023-04-03T06:05:28.058Z,3.47
2023-04-03T06:07:58.019Z,3.17
2023-04-03T06:10:25.621Z,2.60
2023-04-03T06:12:53.011Z,2.63
2023-04-03T06:15:21.388Z,3.03
2023-04-03T06:17:49.377Z,2.90
2023-04-03T06:20:18.545Z,2.33
2023-04-03T06:22:46.927Z,3.25
2023-04-03T06:25:18.561Z,2.60
2023-04-03T06:27:46.436Z,2.72
2023-04-03T06:30:14.808Z,2.65
2023-04-03T06:32:42.457Z,2.45
2023-04-03T06:35:11.036Z,2.45
2023-04-03T06:37:38.721Z,3.15
2023-04-03T06:40:06.799Z,3.08
2023-04-03T06:42:34.097Z,3.00
2023-04-03T06:45:10.852Z,2.63
2023-04-03T06:47:38.328Z,2.35
2023-04-03T06:50:07.602Z,2.15
2023-04-03T06:52:34.954Z,2.30
2023-04-03T06:55:02.353Z,2.17
2023-04-03T06:57:29.985Z,3.08
2023-04-03T07:00:00.943Z,2.40
2023-04-03T07:02:28.334Z,2.40
2023-04-03T07:04:56.470Z,3.03
2023-04-03T07:07:24.193Z,2.45
2023-04-03T07:09:52.279Z,2.65
2023-04-03T07:12:20.715Z,2.80
2023-04-03T07:14:48.030Z,2.80
2023-04-03T07:17:15.568Z,2.30
2023-04-03T07:19:43.016Z,2.50
2023-04-03T07:22:12.043Z,3.00
2023-04-03T07:24:41.244Z,2.65
2023-04-03T07:27:10.028Z,3.05
2023-04-03T07:29:37.431Z,2.33
2023-04-03T07:32:06.765Z,2.47
2023-04-03T07:34:34.119Z,2.13
2023-04-03T07:37:02.472Z,2.42
2023-04-03T07:39:30.578Z,2.53
2023-04-03T07:41:58.080Z,2.03
2023-04-03T07:44:26.079Z,2.40
2023-04-03T07:46:53.583Z,2.30
2023-04-03T07:49:21.172Z,2.13
2023-04-03T07:51:49.585Z,1.65
2023-04-03T07:54:17.082Z,2.00
2023-04-03T07:56:44.974Z,1.98
2023-04-03T07:59:13.473Z,2.33
2023-04-03T08:01:41.270Z,2.10
2023-04-03T08:04:08.737Z,2.17
2023-04-03T08:06:46.557Z,1.92
2023-04-03T08:09:18.367Z,2.28
2023-04-03T08:11:46.514Z,2.95
2023-04-03T08:14:19.604Z,2.25
2023-04-03T08:16:48.809Z,1.95
2023-04-03T08:19:26.131Z,1.60
2023-04-03T08:21:55.734Z,1.83
2023-04-03T08:24:23.478Z,1.80
2023-04-03T08:26:51.116Z,1.85
2023-04-03T08:29:19.017Z,2.03
2023-04-03T08:31:46.482Z,2.00
2023-04-03T08:34:14.584Z,2.00
2023-04-03T08:36:42.314Z,2.28
2023-04-03T08:39:13.326Z,1.88
2023-04-03T08:41:47.405Z,1.60
2023-04-03T08:44:27.152Z,1.90
2023-04-03T08:47:05.519Z,1.75
2023-04-03T08:49:52.627Z,1.77
2023-04-03T08:52:28.780Z,1.13
2023-04-03T08:55:02.678Z,1.52
2023-04-03T08:57:36.834Z,1.13
2023-04-03T09:00:19.050Z,1.65
2023-04-03T09:02:55.533Z,1.70
2023-04-03T09:05:50.240Z,1.50
2023-04-03T09:08:23.947Z,1.63
2023-04-03T09:11:00.336Z,1.73
2023-04-03T09:13:49.802Z,1.73
2023-04-03T09:16:43.626Z,1.27
2023-04-03T09:19:33.972Z,1.63
2023-04-03T09:22:13.760Z,2.10
2023-04-03T09:24:42.940Z,1.67
2023-04-03T09:27:13.337Z,1.58
2023-04-03T09:29:48.964Z,1.42
2023-04-03T09:32:31.005Z,1.63
2023-04-03T09:35:21.844Z,2.00
2023-04-03T09:38:03.230Z,1.65
2023-04-03T09:40:41.102Z,1.30
2023-04-03T09:43:29.969Z,1.00
2023-04-03T09:46:36.346Z,1.30
2023-04-03T09:49:09.771Z,1.08
2023-04-03T09:51:38.391Z,1.00
2023-04-03T09:54:40.721Z,1.48
2023-04-03T09:57:13.036Z,1.50
2023-04-03T09:59:45.914Z,2.38
2023-04-03T10:02:25.302Z,2.15
2023-04-03T10:05:02.461Z,1.67
2023-04-03T10:07:40.212Z,1.50
2023-04-03T10:10:28.243Z,1.20
2023-04-03T10:13:20.182Z,1.70
2023-04-03T10:16:00.300Z,1.27
2023-04-03T10:18:49.746Z,1.60
2023-04-03T10:21:27.771Z,1.55
2023-04-03T10:24:24.161Z,1.08
2023-04-03T10:27:18.860Z,1.35
2023-04-03T10:30:19.169Z,1.10
2023-04-03T10:32:50.695Z,1.00
2023-04-03T10:35:49.152Z,1.00
2023-04-03T10:38:54.023Z,1.73
2023-04-03T10:41:30.404Z,1.20
2023-04-03T10:44:32.643Z,1.17
2023-04-03T10:47:13.658Z,0.95
2023-04-03T10:50:19.748Z,0.93
2023-04-03T10:53:17.817Z,1.30
2023-04-03T10:56:09.613Z,0.90
2023-04-03T10:58:46.986Z,1.25
2023-04-03T11:01:21.489Z,1.10
2023-04-03T11:03:54.345Z,0.90
2023-04-03T11:06:26.014Z,1.15
2023-04-03T11:09:22.689Z,0.77
2023-04-03T11:11:54.530Z,1.23
2023-04-03T11:14:29.855Z,1.10
2023-04-03T11:17:06.468Z,0.90
2023-04-03T11:19:44.961Z,1.13
2023-04-03T11:22:42.404Z,1.20
2023-04-03T11:25:13.019Z,0.82
2023-04-03T11:27:47.194Z,0.93
2023-04-03T11:30:34.976Z,1.08
2023-04-03T11:33:30.611Z,1.48
2023-04-03T11:36:26.852Z,1.10
2023-04-03T11:39:11.131Z,1.02
2023-04-03T11:41:39.295Z,1.25
2023-04-03T11:44:46.030Z,0.90
2023-04-03T11:47:47.161Z,0.82
2023-04-03T11:50:34.787Z,1.08
2023-04-03T11:53:06.672Z,1.00
2023-04-03T11:55:34.077Z,1.05
2023-04-03T11:58:02.538Z,1.00
2023-04-03T12:00:45.631Z,1.58
2023-04-03T12:03:33.006Z,0.80
2023-04-03T12:06:11.561Z,0.80
2023-04-03T12:08:42.746Z,1.10
2023-04-03T12:11:10.334Z,0.90
2023-04-03T12:13:40.168Z,1.20
2023-04-03T12:16:26.734Z,0.80
2023-04-03T12:22:08.975Z,0.98
2023-04-03T12:24:44.151Z,0.80
2023-04-03T12:27:20.108Z,0.80
2023-04-03T12:29:54.722Z,1.02
2023-04-03T12:32:41.518Z,1.05
2023-04-03T12:35:38.498Z,1.20
2023-04-03T12:38:26.453Z,1.40
2023-04-03T12:41:05.915Z,1.35
2023-04-03T12:43:42.934Z,1.30
2023-04-03T12:46:11.051Z,1.55
2023-04-03T12:49:02.679Z,1.48
2023-04-03T12:51:43.482Z,1.25
2023-04-03T12:54:17.490Z,1.30
2023-04-03T12:56:44.951Z,1.08
2023-04-03T12:59:19.929Z,1.02
2023-04-03T13:02:00.598Z,1.35
2023-04-03T13:04:29.368Z,1.17
2023-04-03T13:06:56.935Z,1.30
2023-04-03T13:09:28.890Z,1.35
2023-04-03T13:12:11.443Z,1.20
2023-04-03T13:14:39.846Z,1.20
2023-04-03T13:17:15.036Z,1.10
2023-04-03T13:19:49.323Z,1.00
2023-04-03T13:22:35.296Z,1.13
2023-04-03T13:25:07.921Z,1.08
2023-04-03T13:27:41.008Z,1.08
2023-04-03T13:32:48.544Z,0.80
2023-04-03T13:35:45.796Z,1.23
2023-04-03T13:38:20.869Z,0.80
2023-04-03T13:40:58.339Z,1.00
2023-04-03T13:46:19.467Z,0.98
2023-04-03T13:48:52.736Z,1.20
2023-04-03T13:51:27.318Z,1.00
2023-04-03T13:54:19.049Z,1.05
2023-04-03T13:56:50.210Z,0.90
2023-04-03T13:59:36.410Z,1.00
2023-04-03T14:02:07.152Z,1.33
2023-04-03T14:07:22.500Z,1.05
2023-04-03T14:09:50.168Z,1.20
2023-04-03T14:12:40.243Z,1.20
2023-04-03T14:15:21.659Z,1.10
2023-04-03T14:17:49.505Z,0.80
2023-04-03T14:20:18.811Z,1.38
2023-04-03T14:22:49.979Z,1.38
2023-04-03T14:27:49.130Z,1.00
2023-04-03T14:30:36.612Z,0.80
2023-04-03T14:33:04.393Z,0.73
2023-04-03T14:35:31.869Z,0.77
2023-04-03T14:38:02.680Z,0.60
2023-04-03T14:40:36.474Z,0.85
2023-04-03T14:45:31.625Z,0.82
2023-04-03T14:48:00.481Z,0.60
2023-04-03T14:50:28.708Z,0.70
2023-04-03T14:52:59.639Z,1.13
2023-04-03T14:55:34.846Z,0.88
2023-04-03T14:58:03.530Z,1.05
2023-04-03T15:00:31.149Z,1.77
2023-04-03T15:02:59.603Z,0.90
2023-04-03T15:05:27.557Z,0.90
2023-04-03T15:07:57.415Z,1.20
2023-04-03T15:10:30.639Z,0.80
2023-04-03T15:12:58.802Z,0.80
2023-04-03T15:15:30.777Z,0.77
2023-04-03T15:18:01.247Z,0.85
2023-04-03T15:20:34.822Z,0.80
2023-04-03T15:23:11.046Z,1.45
2023-04-03T15:25:40.599Z,1.00
2023-04-03T15:28:28.909Z,0.80
2023-04-03T15:30:58.456Z,0.90
2023-04-03T15:33:26.978Z,1.05
2023-04-03T15:36:02.678Z,0.80
2023-04-03T15:38:36.284Z,0.70
2023-04-03T15:41:04.021Z,1.30
2023-04-03T15:43:31.937Z,0.80
2023-04-03T15:46:01.671Z,1.25
2023-04-03T15:48:29.937Z,1.00
2023-04-03T15:50:59.327Z,0.93
2023-04-03T15:53:27.959Z,0.90
2023-04-03T15:55:55.298Z,1.00
2023-04-03T15:58:22.755Z,0.90
2023-04-03T16:00:50.306Z,1.10
2023-04-03T16:03:20.691Z,0.80
2023-04-03T16:05:49.136Z,1.02
2023-04-03T16:08:18.830Z,1.00
2023-04-03T16:13:16.281Z,0.98
2023-04-03T16:15:44.781Z,0.77
2023-04-03T16:18:14.930Z,1.00
2023-04-03T16:20:42.412Z,1.30
2023-04-03T16:23:09.998Z,0.77
2023-04-03T16:25:37.638Z,1.55
2023-04-03T16:28:05.703Z,1.08
2023-04-03T16:30:34.029Z,0.80
2023-04-03T16:33:01.472Z,1.13
2023-04-03T16:35:29.142Z,0.98
2023-04-03T16:37:57.298Z,1.02
2023-04-03T16:40:24.760Z,1.38
2023-04-03T16:42:53.021Z,1.05
2023-04-03T16:45:21.595Z,0.80
2023-04-03T16:47:49.326Z,0.95
2023-04-03T16:50:16.800Z,1.00
2023-04-03T16:52:47.235Z,1.38
2023-04-03T16:55:14.635Z,1.10
2023-04-03T16:57:42.326Z,1.20
2023-04-03T17:00:10.489Z,1.00
2023-04-03T17:02:38.276Z,1.02
2023-04-03T17:05:06.380Z,0.90
2023-04-03T17:07:34.233Z,1.17
2023-04-03T17:10:02.012Z,1.30
2023-04-03T17:12:29.826Z,0.95
2023-04-03T17:15:04.484Z,1.23
2023-04-03T17:17:32.662Z,0.88
2023-04-03T17:20:00.146Z,1.00
2023-04-03T17:22:29.688Z,1.30
2023-04-03T17:24:57.946Z,1.15
2023-04-03T17:27:25.861Z,1.23
2023-04-03T17:29:56.067Z,0.98
2023-04-03T17:32:27.571Z,1.20
2023-04-03T17:34:55.518Z,1.10
2023-04-03T17:37:23.106Z,1.05
2023-04-03T17:39:51.494Z,0.93
2023-04-03T17:42:18.851Z,1.02
2023-04-03T17:44:46.864Z,1.10
2023-04-03T17:47:14.106Z,1.08
2023-04-03T17:49:41.859Z,1.17
2023-04-03T17:52:12.216Z,1.35
2023-04-03T17:54:41.694Z,1.30
2023-04-03T17:57:09.277Z,1.58
2023-04-03T17:59:37.042Z,1.00
2023-04-03T18:02:04.767Z,1.15
2023-04-03T18:04:33.456Z,1.20
2023-04-03T18:07:02.780Z,1.25
2023-04-03T18:09:34.005Z,1.13
2023-04-03T18:12:04.796Z,1.25
2023-04-03T18:17:01.077Z,1.45
2023-04-03T18:19:30.096Z,1.58
2023-04-03T18:22:01.448Z,1.48
2023-04-03T18:24:31.982Z,1.30
2023-04-03T18:27:11.725Z,1.38
2023-04-03T18:29:43.061Z,1.15
2023-04-03T18:32:13.395Z,1.40
2023-04-03T18:34:41.209Z,1.20
2023-04-03T18:37:08.606Z,1.15
2023-04-03T18:39:36.242Z,1.23
2023-04-03T18:42:09.380Z,1.10
2023-04-03T18:44:38.127Z,1.40
2023-04-03T18:47:05.657Z,1.25
2023-04-03T18:49:34.652Z,1.10
2023-04-03T18:52:02.614Z,1.40
2023-04-03T18:54:30.060Z,1.85
2023-04-03T18:56:57.949Z,1.65
2023-04-03T18:59:25.655Z,1.27
2023-04-03T19:01:54.911Z,1.25
2023-04-03T19:04:22.350Z,1.20
2023-04-03T19:06:49.726Z,1.15
2023-04-03T19:09:17.443Z,1.08
2023-04-03T19:12:23.202Z,1.33
2023-04-03T19:14:50.608Z,1.45
2023-04-03T19:17:17.822Z,1.80
2023-04-03T19:19:45.528Z,1.70
2023-04-03T19:22:12.864Z,1.33
2023-04-03T19:24:40.131Z,1.08
2023-04-03T19:27:07.625Z,1.23
2023-04-03T19:29:35.004Z,1.35
2023-04-03T19:32:02.380Z,1.10
2023-04-03T19:34:29.610Z,1.67
2023-04-03T19:36:56.853Z,1.23
2023-04-03T19:39:24.211Z,1.30
2023-04-03T19:41:51.818Z,1.27
2023-04-03T19:44:19.072Z,1.52
2023-04-03T19:46:51.519Z,1.60
2023-04-03T19:49:20.038Z,1.50
2023-04-03T19:51:47.389Z,1.58
2023-04-03T19:54:14.686Z,1.80
2023-04-03T19:56:43.487Z,1.90
2023-04-03T19:59:10.810Z,1.60
2023-04-03T20:01:39.012Z,1.60
2023-04-03T20:04:06.424Z,1.40
2023-04-03T20:06:34.004Z,1.77
2023-04-03T20:09:01.876Z,1.60
2023-04-03T20:11:29.334Z,1.58
2023-04-03T20:13:57.224Z,1.50
2023-04-03T20:16:26.058Z,1.70
2023-04-03T20:18:56.229Z,1.90
2023-04-03T20:21:32.384Z,1.60
2023-04-03T20:24:01.265Z,1.58
2023-04-03T20:26:31.676Z,1.80
2023-04-03T20:29:01.544Z,1.90
2023-04-03T20:31:30.646Z,1.63
2023-04-03T20:33:57.969Z,1.60
2023-04-03T20:36:28.373Z,1.67
2023-04-03T20:38:56.272Z,1.80
2023-04-03T20:41:23.835Z,2.08
2023-04-03T20:43:51.334Z,1.95
2023-04-03T20:46:23.280Z,1.80
2023-04-03T20:48:50.806Z,1.85
2023-04-03T20:51:19.578Z,2.10
2023-04-03T20:53:49.264Z,1.80
2023-04-03T20:56:18.585Z,2.70
2023-04-03T20:58:49.781Z,1.85
2023-04-03T21:01:21.489Z,1.95
2023-04-03T21:03:50.978Z,2.58
2023-04-03T21:06:57.094Z,2.15
2023-04-03T21:10:02.068Z,2.42
2023-04-03T21:13:08.146Z,2.33
2023-04-03T21:15:57.313Z,2.20
2023-04-03T21:18:43.799Z,2.53
2023-04-03T21:21:19.691Z,2.35
2023-04-03T21:23:49.797Z,2.65
2023-04-03T21:26:17.921Z,3.00
2023-04-03T21:28:45.727Z,2.28
2023-04-03T21:31:15.484Z,2.17
2023-04-03T21:33:43.048Z,2.78
2023-04-03T21:36:10.674Z,3.40
2023-04-03T21:38:38.187Z,2.78
2023-04-03T21:41:05.536Z,2.60
2023-04-03T21:43:33.345Z,2.42
2023-04-03T21:46:00.644Z,2.35
2023-04-03T21:48:31.520Z,2.90
2023-04-03T21:51:02.811Z,2.72
2023-04-03T21:53:31.445Z,2.30
2023-04-03T21:56:00.304Z,2.20
2023-04-03T21:58:30.561Z,2.80
2023-04-03T22:01:07.856Z,3.03
2023-04-03T22:03:35.094Z,2.63
2023-04-03T22:06:02.485Z,2.70
2023-04-03T22:08:29.888Z,2.75
2023-04-03T22:11:02.455Z,2.63
2023-04-03T22:13:31.575Z,2.85
2023-04-03T22:15:59.572Z,2.80
2023-04-03T22:18:27.532Z,2.15
2023-04-03T22:20:56.113Z,2.70
2023-04-03T22:23:23.651Z,2.17
2023-04-03T22:25:59.403Z,2.65
2023-04-03T22:28:27.941Z,2.67
2023-04-03T22:30:56.457Z,2.65
2023-04-03T22:33:24.178Z,2.17
2023-04-03T22:35:51.818Z,2.25
2023-04-03T22:38:19.213Z,2.67
2023-04-03T22:40:48.142Z,2.80
2023-04-03T22:43:17.467Z,2.53
2023-04-03T22:45:49.214Z,2.30
2023-04-03T22:48:18.285Z,2.45
2023-04-03T22:50:46.997Z,2.60
2023-04-03T22:53:16.656Z,2.72
2023-04-03T22:55:44.559Z,1.85
2023-04-03T22:58:11.873Z,2.70
2023-04-03T23:00:39.391Z,2.85
2023-04-03T23:03:07.084Z,2.40
2023-04-03T23:05:34.537Z,2.60
2023-04-03T23:08:02.102Z,2.78
2023-04-03T23:10:31.737Z,3.00
2023-04-03T23:12:59.572Z,2.42
2023-04-03T23:15:27.540Z,2.70
2023-04-03T23:17:55.170Z,2.50
2023-04-03T23:20:22.564Z,2.67
2023-04-03T23:22:49.802Z,2.78
2023-04-03T23:25:19.218Z,3.00
2023-04-03T23:27:53.696Z,3.47
2023-04-03T23:30:21.660Z,2.88
2023-04-03T23:32:49.124Z,2.90
2023-04-03T23:35:16.725Z,2.90
2023-04-03T23:37:44.100Z,3.33
2023-04-03T23:40:11.919Z,2.65
2023-04-03T23:42:39.151Z,2.63
2023-04-03T23:45:08.058Z,3.42
2023-04-03T23:47:36.754Z,3.22
2023-04-03T23:50:04.260Z,3.42
2023-04-03T23:52:31.533Z,3.42
2023-04-03T23:54:58.760Z,3.70
2023-04-03T23:57:25.971Z,3.78
2023-04-03T23:59:53.259Z,3.53
